createdAt,value
2023-05-14T00:00:17.584Z,10.87
2023-05-14T00:06:19.350Z,11.23
2023-05-14T00:12:21.113Z,10.93
2023-05-14T00:18:23.139Z,10.90
2023-05-14T00:24:28.002Z,8.49
2023-05-14T00:30:30.064Z,7.05
2023-05-14T00:36:32.564Z,8.90
2023-05-14T00:42:43.963Z,9.54
2023-05-14T00:48:47.533Z,10.41
2023-05-14T00:54:53.044Z,7.90
2023-05-14T01:00:55.588Z,9.56
2023-05-14T01:07:09.073Z,9.46
2023-05-14T01:13:39.651Z,9.70
2023-05-14T01:19:53.072Z,9.19
2023-05-14T01:26:04.636Z,9.38
2023-05-14T01:32:11.212Z,9.70
2023-05-14T01:38:18.691Z,6.90
2023-05-14T01:44:25.911Z,7.95
2023-05-14T01:50:30.670Z,7.83
2023-05-14T01:56:33.147Z,8.04
2023-05-14T02:02:36.684Z,8.92
2023-05-14T02:08:41.054Z,8.73
2023-05-14T02:14:46.561Z,8.38
2023-05-14T02:20:49.026Z,6.86
2023-05-14T02:26:53.910Z,6.14
2023-05-14T02:32:57.031Z,8.42
2023-05-14T02:39:02.421Z,7.17
2023-05-14T02:45:06.833Z,8.68
2023-05-14T02:51:12.439Z,6.45
2023-05-14T02:57:14.826Z,7.35
2023-05-14T03:03:17.390Z,7.73
2023-05-14T03:09:22.785Z,7.90
2023-05-14T03:15:26.181Z,7.36
2023-05-14T03:21:33.770Z,7.03
2023-05-14T03:27:36.262Z,8.08
2023-05-14T03:33:41.723Z,8.15
2023-05-14T03:39:44.208Z,7.09
2023-05-14T03:45:52.878Z,7.50
2023-05-14T03:51:55.249Z,8.81
2023-05-14T03:58:17.316Z,8.92
2023-05-14T04:04:29.358Z,8.72
2023-05-14T04:10:42.073Z,9.00
2023-05-14T04:16:50.365Z,9.18
2023-05-14T04:23:02.432Z,8.73
2023-05-14T04:29:08.676Z,10.36
2023-05-14T04:35:11.774Z,11.65
2023-05-14T04:41:30.786Z,10.73
2023-05-14T04:47:33.871Z,11.25
2023-05-14T04:53:35.826Z,11.98
2023-05-14T04:59:41.758Z,12.47
2023-05-14T05:05:44.254Z,12.88
2023-05-14T05:11:49.718Z,12.87
2023-05-14T05:18:02.160Z,13.65
2023-05-14T05:24:09.061Z,13.35
2023-05-14T05:30:12.186Z,13.88
2023-05-14T05:36:14.638Z,14.49
2023-05-14T05:42:17.108Z,15.10
2023-05-14T05:48:22.639Z,14.57
2023-05-14T05:54:40.430Z,13.94
2023-05-14T06:00:49.955Z,16.12
2023-05-14T06:06:52.130Z,15.68
2023-05-14T06:12:54.554Z,16.70
2023-05-14T06:18:57.067Z,16.72
2023-05-14T06:25:20.931Z,16.54
2023-05-14T06:31:23.082Z,16.40
2023-05-14T06:37:31.151Z,16.16
2023-05-14T06:43:51.406Z,16.94
2023-05-14T06:49:53.573Z,17.54
2023-05-14T06:55:57.007Z,17.50
2023-05-14T07:01:59.567Z,16.65
2023-05-14T07:08:25.058Z,17.15
2023-05-14T07:14:29.822Z,18.02
2023-05-14T07:20:46.034Z,18.08
2023-05-14T07:26:59.854Z,17.49
2023-05-14T07:33:09.557Z,19.14
2023-05-14T07:39:37.687Z,18.59
2023-05-14T07:45:45.540Z,18.69
2023-05-14T07:51:47.658Z,19.59
2023-05-14T07:57:58.961Z,19.17
2023-05-14T08:04:03.777Z,19.31
2023-05-14T08:10:09.095Z,20.13
2023-05-14T08:16:11.585Z,20.11
2023-05-14T08:22:15.090Z,20.16
2023-05-14T08:28:27.839Z,20.75
2023-05-14T08:34:40.247Z,20.15
2023-05-14T08:40:43.569Z,20.79
2023-05-14T08:53:10.591Z,20.22
2023-05-14T08:59:16.117Z,20.39
2023-05-14T09:05:34.407Z,20.46
2023-05-14T09:11:51.196Z,21.01
2023-05-14T09:17:56.882Z,21.19
2023-05-14T09:24:00.640Z,20.71
2023-05-14T09:30:18.614Z,20.64
2023-05-14T09:36:21.126Z,20.94
2023-05-14T09:42:23.626Z,21.63
2023-05-14T09:48:27.095Z,21.17
2023-05-14T09:54:32.804Z,21.14
2023-05-14T10:00:37.079Z,21.84
2023-05-14T10:06:54.396Z,20.85
2023-05-14T10:13:15.358Z,21.60
2023-05-14T10:19:26.367Z,21.61
2023-05-14T10:25:31.494Z,21.64
2023-05-14T10:32:02.152Z,21.46
2023-05-14T10:38:10.279Z,22.02
2023-05-14T10:44:16.498Z,22.01
2023-05-14T10:50:24.427Z,22.04
2023-05-14T10:56:26.688Z,21.80
2023-05-14T11:02:33.911Z,21.88
2023-05-14T11:08:44.944Z,21.87
2023-05-14T11:14:48.244Z,22.15
2023-05-14T11:20:53.693Z,21.95
2023-05-14T11:27:00.217Z,21.70
2023-05-14T11:33:05.735Z,22.19
2023-05-14T11:39:12.629Z,21.39
2023-05-14T11:45:27.716Z,22.23
2023-05-14T11:51:45.271Z,22.02
2023-05-14T11:57:47.751Z,21.39
2023-05-14T12:03:51.300Z,22.39
2023-05-14T12:09:56.380Z,22.49
2023-05-14T12:16:07.227Z,21.52
2023-05-14T12:22:18.822Z,22.28
2023-05-14T12:28:24.520Z,22.62
2023-05-14T12:34:33.135Z,22.45
2023-05-14T12:40:37.197Z,22.33
2023-05-14T12:46:39.282Z,21.52
2023-05-14T12:52:41.065Z,22.39
2023-05-14T12:58:43.201Z,22.35
2023-05-14T13:04:45.851Z,22.71
2023-05-14T13:10:48.287Z,22.60
2023-05-14T13:16:50.122Z,23.13
2023-05-14T13:22:55.513Z,22.78
2023-05-14T13:29:01.120Z,21.73
2023-05-14T13:35:03.543Z,21.82
2023-05-14T13:41:05.885Z,22.19
2023-05-14T13:47:10.654Z,22.70
2023-05-14T13:53:31.364Z,22.25
2023-05-14T13:59:33.571Z,22.68
2023-05-14T14:05:38.708Z,23.00
2023-05-14T14:11:42.541Z,22.48
2023-05-14T14:17:47.070Z,22.84
2023-05-14T14:23:49.476Z,22.12
2023-05-14T14:29:51.943Z,22.73
2023-05-14T14:36:10.117Z,22.46
2023-05-14T14:42:21.722Z,22.18
2023-05-14T14:48:33.555Z,22.33
2023-05-14T14:54:41.009Z,21.77
2023-05-14T15:00:46.468Z,21.86
2023-05-14T15:06:48.973Z,21.86
2023-05-14T15:12:51.456Z,21.53
2023-05-14T15:19:03.018Z,21.66
2023-05-14T15:25:06.374Z,21.35
2023-05-14T15:31:19.296Z,21.22
2023-05-14T15:37:22.339Z,21.51
2023-05-14T15:43:27.855Z,21.15
2023-05-14T15:49:31.309Z,20.95
2023-05-14T15:55:39.870Z,20.94
2023-05-14T16:01:44.345Z,20.60
2023-05-14T16:07:55.232Z,20.85
2023-05-14T16:14:00.340Z,19.91
2023-05-14T16:20:08.808Z,20.00
2023-05-14T16:26:14.322Z,19.78
2023-05-14T16:32:16.897Z,20.19
2023-05-14T16:38:20.318Z,20.22
2023-05-14T16:44:31.462Z,20.02
2023-05-14T16:50:34.316Z,20.14
2023-05-14T16:56:37.747Z,19.81
2023-05-14T17:02:40.274Z,19.85
2023-05-14T17:08:42.783Z,19.80
2023-05-14T17:14:45.275Z,19.28
2023-05-14T17:20:47.720Z,19.34
2023-05-14T17:26:50.164Z,18.65
2023-05-14T17:32:54.650Z,19.13
2023-05-14T17:38:57.151Z,18.95
2023-05-14T17:44:59.629Z,18.89
2023-05-14T17:51:02.162Z,18.97
2023-05-14T17:57:16.290Z,18.77
2023-05-14T18:03:22.305Z,18.48
2023-05-14T18:09:27.709Z,17.31
2023-05-14T18:15:32.247Z,17.21
2023-05-14T18:21:40.741Z,18.16
2023-05-14T18:27:50.473Z,17.99
2023-05-14T18:34:07.071Z,17.43
2023-05-14T18:40:18.684Z,17.95
2023-05-14T18:46:36.962Z,18.02
2023-05-14T18:52:51.635Z,17.17
2023-05-14T18:59:11.480Z,16.50
2023-05-14T19:05:16.333Z,17.60
2023-05-14T19:11:20.845Z,16.94
2023-05-14T19:17:33.567Z,16.43
2023-05-14T19:23:41.883Z,16.75
2023-05-14T19:29:52.434Z,16.46
2023-05-14T19:35:57.869Z,16.38
2023-05-14T19:42:10.409Z,16.44
2023-05-14T19:48:16.090Z,15.64
2023-05-14T19:54:21.323Z,16.08
2023-05-14T20:00:24.160Z,15.11
2023-05-14T20:06:35.666Z,15.36
2023-05-14T20:12:43.372Z,13.94
2023-05-14T20:19:00.374Z,15.09
2023-05-14T20:25:02.845Z,14.38
2023-05-14T20:31:11.259Z,14.33
2023-05-14T20:37:26.220Z,14.52
2023-05-14T20:43:36.800Z,14.75
2023-05-14T20:49:57.180Z,14.75
2023-05-14T20:56:59.417Z,15.04
2023-05-14T21:03:10.373Z,14.17
2023-05-14T21:09:39.916Z,14.67
2023-05-14T21:15:45.156Z,14.76
2023-05-14T21:22:01.772Z,14.79
2023-05-14T21:28:40.257Z,14.35
2023-05-14T21:34:47.852Z,13.98
2023-05-14T21:41:50.067Z,14.28
2023-05-14T21:48:03.175Z,13.74
2023-05-14T21:54:11.661Z,14.64
2023-05-14T22:00:51.219Z,12.95
2023-05-14T22:07:10.666Z,12.90
2023-05-14T22:13:13.265Z,13.54
2023-05-14T22:26:20.129Z,13.66
2023-05-14T22:32:46.933Z,14.11
2023-05-14T22:45:41.699Z,13.74
2023-05-14T22:51:58.732Z,14.63
2023-05-14T22:58:01.261Z,14.43
2023-05-14T23:04:03.746Z,14.68
2023-05-14T23:10:27.090Z,14.24
2023-05-14T23:16:36.700Z,14.81
2023-05-14T23:22:40.266Z,14.96
2023-05-14T23:28:42.703Z,15.24
2023-05-14T23:34:48.186Z,15.34
2023-05-14T23:40:53.667Z,15.03
2023-05-14T23:46:57.140Z,14.93
2023-05-14T23:52:59.605Z,15.18
2023-05-14T23:59:05.034Z,14.83
